Time;durP1;ratioP1;P1;durP2;ratioP2;P2;SDS_P1;SDS_P2;PMS_P1;PMS_P2;Temp;Humidity;BMP_temperature;BMP_pressure;BME280_temperature;BME280_humidity;BME280_pressure;Samples;Min_cycle;Max_cycle;Signal;HPM_P1;HPM_P2
2020/12/02 10:39:31;;;;;;;109.05;33.35;;;;;;;31.41;22.83;98743.41;5062975;28;20407;-75
2020/12/02 10:42:29;;;;;;;104.35;32.90;;;;;;;35.22;18.87;98736.03;5060754;28;20028;-80
2020/12/02 10:50:13;;;;;;;104.57;35.03;;;;;;;35.52;17.34;98743.31;5110068;27;20446;-87
2020/12/02 10:52:41;;;;;;;59.17;22.60;;;;;;;37.10;14.42;98735.56;5106291;28;20039;-78
2020/12/02 10:55:13;;;;;;;65.90;24.95;;;;;;;37.28;15.10;98722.91;5109111;28;20028;-77
2020/12/02 10:57:41;;;;;;;30.23;10.25;;;;;;;38.10;14.51;98727.59;5106510;28;20090;-77
2020/12/02 11:00:10;;;;;;;15.32;5.75;;;;;;;37.99;15.53;98716.88;5106244;28;20035;-85
2020/12/02 11:02:36;;;;;;;11.73;3.90;;;;;;;38.11;15.52;98729.19;5105158;28;20123;-87
2020/12/02 11:05:06;;;;;;;7.88;3.17;;;;;;;38.04;15.69;98721.06;5102520;28;20042;-87
2020/12/02 11:08:00;;;;;;;5.63;3.03;;;;;;;38.04;15.83;98727.56;5104354;28;20032;-88
2020/12/02 11:10:48;;;;;;;4.72;2.50;;;;;;;38.14;15.68;98730.22;5107932;28;20092;-84
2020/12/02 11:13:38;;;;;;;3.83;2.38;;;;;;;38.20;15.72;98728.16;5102765;28;20040;-80
2020/12/02 11:16:23;;;;;;;5.40;2.38;;;;;;;38.34;16.21;98733.72;5107804;28;20153;-83
2020/12/02 11:19:06;;;;;;;3.60;1.85;;;;;;;38.53;15.79;98728.28;5105173;28;20046;-78
2020/12/02 11:21:41;;;;;;;1.77;1.30;;;;;;;38.62;16.30;98707.94;5104152;28;20114;-77
2020/12/02 11:24:25;;;;;;;1.60;1.42;;;;;;;38.64;16.06;98711.06;5106814;28;20039;-78
2020/12/02 11:26:51;;;;;;;2.78;1.35;;;;;;;38.61;16.16;98709.22;5104758;28;20131;-74
2020/12/02 11:29:19;;;;;;;0.95;0.88;;;;;;;38.59;16.31;98718.38;5105336;28;20040;-78
2020/12/02 11:31:57;;;;;;;1.88;0.90;;;;;;;38.64;16.18;98719.69;5104351;28;20058;-79
2020/12/02 11:34:53;;;;;;;1.52;0.80;;;;;;;38.69;16.10;98708.22;5109604;28;20123;-76
2020/12/02 11:37:28;;;;;;;0.75;0.70;;;;;;;38.73;16.41;98705.09;5104908;28;20028;-77
2020/12/02 11:40:09;;;;;;;1.02;0.70;;;;;;;38.77;16.26;98713.47;5109734;28;20024;-76
2020/12/02 11:42:49;;;;;;;1.27;0.88;;;;;;;38.62;16.57;98705.84;5106695;28;20474;-78
2020/12/02 11:45:19;;;;;;;0.87;0.60;;;;;;;38.65;16.72;98706.91;5096424;28;20194;-76
2020/12/02 11:48:02;;;;;;;1.20;0.70;;;;;;;38.72;16.64;98702.75;5100875;28;20383;-77
2020/12/02 11:50:53;;;;;;;0.35;0.35;;;;;;;38.81;16.38;98696.75;5106455;28;20028;-76
2020/12/02 11:53:56;;;;;;;1.95;1.05;;;;;;;38.99;15.96;98684.72;5106905;28;20028;-84
2020/12/02 11:56:33;;;;;;;0.57;0.57;;;;;;;38.79;16.85;98688.63;5106482;28;20039;-78
2020/12/02 11:59:31;;;;;;;0.52;0.47;;;;;;;38.83;16.58;98685.53;5107268;28;20023;-76
2020/12/02 12:02:22;;;;;;;26.75;13.40;;;;;;;39.31;13.56;98669.56;5093330;28;20114;-74
2020/12/02 12:05:01;;;;;;;22.20;9.23;;;;;;;39.15;13.67;98673.25;5093631;28;20028;-82
2020/12/02 12:08:00;;;;;;;8.90;5.03;;;;;;;38.72;14.50;98669.84;5096263;28;20126;-81
2020/12/02 12:10:46;;;;;;;6.97;3.28;;;;;;;38.69;15.05;98673.75;5090589;28;20032;-80
2020/12/02 12:13:27;;;;;;;3.45;1.90;;;;;;;38.66;15.13;98662.50;5090583;28;20061;-80
2020/12/02 12:15:58;;;;;;;;;;;;;;;38.69;14.47;98662.28;5081745;28;20035;-80
2020/12/02 12:18:39;;;;;;;1.50;1.20;;;;;;;38.70;15.15;98657.28;5094874;28;20360;-80
2020/12/02 12:21:49;;;;;;;2.47;1.40;;;;;;;38.65;15.16;98655.97;5091669;28;20032;-78
2020/12/02 12:24:17;;;;;;;1.50;1.00;;;;;;;38.62;15.50;98647.66;5091567;28;20112;-79
2020/12/02 12:26:52;;;;;;;1.88;1.05;;;;;;;38.56;15.48;98646.84;5095361;28;20040;-78
2020/12/02 12:29:18;;;;;;;0.65;0.52;;;;;;;38.54;16.00;98635.09;5092982;28;20039;-78
2020/12/02 12:31:51;;;;;;;1.27;0.85;;;;;;;38.51;15.85;98639.78;5092754;28;20032;-78
2020/12/02 12:34:32;;;;;;;1.63;0.68;;;;;;;38.51;15.94;98644.78;5092998;28;20055;-79
2020/12/02 12:37:04;;;;;;;0.60;0.50;;;;;;;38.48;15.96;98640.88;5093514;28;20046;-79
2020/12/02 12:39:56;;;;;;;0.70;0.50;;;;;;;38.47;15.67;98632.75;5091482;28;20404;-79
2020/12/02 12:42:26;;;;;;;0.77;0.60;;;;;;;38.43;16.20;98626.50;5091858;28;20032;-79
2020/12/02 12:44:58;;;;;;;0.47;0.40;;;;;;;38.42;16.24;98630.66;5091153;28;20044;-79
2020/12/02 12:47:26;;;;;;;0.68;0.50;;;;;;;38.41;16.42;98629.91;5089726;28;20087;-79
2020/12/02 12:49:56;;;;;;;0.60;0.40;;;;;;;38.39;16.15;98621.03;5089732;28;20503;-79
2020/12/02 12:52:28;;;;;;;0.40;0.30;;;;;;;38.38;16.14;98619.44;5083941;28;20032;-79
2020/12/02 12:54:54;;;;;;;0.30;0.30;;;;;;;38.38;16.63;98619.44;5090808;28;20391;-79
2020/12/02 12:57:24;;;;;;;0.43;0.32;;;;;;;38.32;16.22;98624.41;5089072;28;20122;-83
2020/12/02 12:59:56;;;;;;;1.17;0.30;;;;;;;38.31;16.14;98616.31;5091709;28;20036;-78
2020/12/02 13:02:27;;;;;;;1.02;0.40;;;;;;;38.30;15.98;98623.38;5096069;28;20444;-79
2020/12/02 13:04:53;;;;;;;0.30;0.30;;;;;;;38.33;16.27;98613.69;5095799;28;20077;-78
2020/12/02 13:07:21;;;;;;;2.05;0.40;;;;;;;38.28;16.00;98612.38;5086349;28;20122;-85
2020/12/02 13:09:53;;;;;;;0.20;0.20;;;;;;;38.40;16.65;98610.31;5093607;28;20032;-81
2020/12/02 13:12:39;;;;;;;0.85;0.57;;;;;;;38.41;15.87;98614.75;5087801;28;20051;-81
2020/12/02 13:15:23;;;;;;;0.25;0.25;;;;;;;38.46;15.70;98616.84;5084493;28;20039;-83
2020/12/02 13:18:14;;;;;;;0.55;0.45;;;;;;;38.48;15.47;98617.91;5086093;28;20057;-81
2020/12/02 13:20:54;;;;;;;0.88;0.50;;;;;;;38.47;15.82;98616.31;5088725;28;20036;-81
2020/12/02 13:23:29;;;;;;;0.52;0.38;;;;;;;38.47;16.18;98615.53;5089215;28;20028;-83
2020/12/02 13:25:59;;;;;;;0.73;0.30;;;;;;;38.48;15.96;98626.50;5091849;28;20036;-86
2020/12/02 13:28:28;;;;;;;0.47;0.40;;;;;;;38.47;16.02;98621.28;5093351;28;20032;-83
2020/12/02 13:31:12;;;;;;;0.30;0.20;;;;;;;38.49;15.86;98607.19;5091428;28;20036;-85
2020/12/02 13:33:39;;;;;;;0.30;0.30;;;;;;;38.49;16.32;98604.31;5092094;28;20495;-86
2020/12/02 13:36:22;;;;;;;0.50;0.43;;;;;;;38.41;15.64;98614.75;5091121;28;20032;-82
2020/12/02 13:38:49;;;;;;;0.68;0.30;;;;;;;38.49;16.67;98613.72;5088251;28;20553;-82
2020/12/02 13:41:32;;;;;;;0.73;0.20;;;;;;;38.46;15.08;98606.13;5090982;28;20035;-82
2020/12/02 13:44:05;;;;;;;0.30;0.30;;;;;;;38.43;16.06;98598.59;5082236;28;20035;-90
2020/12/02 13:46:31;;;;;;;1.65;0.38;;;;;;;38.47;16.57;98601.97;5092337;28;20078;-89
2020/12/02 13:49:00;;;;;;;0.30;0.30;;;;;;;38.48;16.21;98589.19;5090573;28;20065;-86
2020/12/02 13:51:39;;;;;;;0.30;0.30;;;;;;;38.48;16.30;98585.53;5092516;28;20051;-82
2020/12/02 13:54:19;;;;;;;0.32;0.32;;;;;;;38.51;16.25;98585.25;5094838;28;20028;-81
2020/12/02 13:56:58;;;;;;;0.80;0.20;;;;;;;38.51;15.81;98576.66;5089615;28;20031;-81
2020/12/02 13:59:51;;;;;;;0.68;0.20;;;;;;;38.47;15.82;98592.56;5095127;28;20111;-83
2020/12/02 14:03:04;;;;;;;0.20;0.20;;;;;;;38.51;15.19;98588.13;5092039;28;20035;-83
2020/12/02 14:05:55;;;;;;;0.20;0.20;;;;;;;38.52;15.75;98589.72;5029058;28;20052;-83
2020/12/02 14:08:21;;;;;;;;;;;;;;;38.54;14.41;98592.06;5089076;28;20115;-83
2020/12/02 14:10:48;;;;;;;0.20;0.20;;;;;;;38.49;16.23;98596.50;5084991;28;19924;-84
2020/12/02 14:13:14;;;;;;;0.20;0.10;;;;;;;38.45;16.32;98587.38;5091177;28;20056;-83
2020/12/02 14:15:41;;;;;;;0.20;0.20;;;;;;;38.45;16.74;98589.44;5083954;28;20029;-83
2020/12/02 14:18:12;;;;;;;0.20;0.20;;;;;;;38.41;16.09;98592.59;5086847;28;20040;-83
2020/12/02 14:20:38;;;;;;;;;;;;;;;38.46;14.40;98591.03;5090944;28;20024;-83
2020/12/02 14:23:05;;;;;;;0.30;0.20;;;;;;;38.43;16.42;98589.97;5091438;28;19924;-80
2020/12/02 14:25:31;;;;;;;0.20;0.20;;;;;;;38.42;16.22;98574.06;5091953;28;20078;-84
2020/12/02 14:28:00;;;;;;;0.20;0.10;;;;;;;38.44;16.68;98568.56;5090931;28;20408;-81
2020/12/02 14:30:30;;;;;;;0.17;0.17;;;;;;;38.47;16.55;98569.63;5091293;28;20028;-80
2020/12/02 14:32:58;;;;;;;0.20;0.20;;;;;;;38.49;16.75;98547.69;5092130;28;20089;-79
2020/12/02 14:35:36;;;;;;;0.28;0.10;;;;;;;38.52;16.65;98549.53;5083397;28;20040;-81
2020/12/02 14:38:09;;;;;;;0.20;0.20;;;;;;;38.54;16.08;98549.00;5091317;28;20036;-82
2020/12/02 14:40:35;;;;;;;0.20;0.20;;;;;;;38.52;16.73;98549.53;5082064;28;20027;-79
2020/12/02 14:43:13;;;;;;;0.20;0.20;;;;;;;38.53;15.81;98556.06;5087224;28;20435;-79
2020/12/02 14:45:39;;;;;;;0.28;0.10;;;;;;;38.55;16.52;98559.19;5085516;28;20024;-80
2020/12/02 14:48:05;;;;;;;0.40;0.20;;;;;;;38.53;16.68;98558.94;5087329;28;20105;-82
2020/12/02 14:50:32;;;;;;;0.20;0.20;;;;;;;38.56;16.50;98555.78;5086831;28;20085;-82
2020/12/02 14:52:58;;;;;;;0.25;0.20;;;;;;;38.54;16.26;98551.88;5086835;28;20073;-79
2020/12/02 14:55:25;;;;;;;0.15;0.10;;;;;;;38.57;16.47;98565.19;5081293;28;20391;-79
2020/12/02 14:58:15;;;;;;;0.20;0.20;;;;;;;38.58;16.10;98556.03;5090960;28;20032;-78
2020/12/02 15:01:06;;;;;;;0.10;0.10;;;;;;;38.63;15.65;98555.25;5090935;28;20427;-78
2020/12/02 15:03:35;;;;;;;0.20;0.20;;;;;;;38.61;16.45;98557.88;5094621;28;20040;-80
2020/12/02 15:06:02;;;;;;;0.73;0.20;;;;;;;38.63;16.54;98548.72;5092747;28;20088;-80
2020/12/02 15:08:59;;;;;;;0.20;0.20;;;;;;;38.59;15.32;98551.09;5091338;28;20387;-78
2020/12/02 15:11:36;;;;;;;0.10;0.10;;;;;;;38.67;16.59;98544.28;5084655;28;20488;-77
2020/12/02 15:14:03;;;;;;;0.20;0.20;;;;;;;38.61;16.38;98548.47;5086415;28;20487;-78
2020/12/02 15:16:31;;;;;;;0.65;0.28;;;;;;;38.59;16.10;98551.09;5084914;28;20032;-77
2020/12/02 15:18:57;;;;;;;0.30;0.28;;;;;;;38.58;15.91;98540.94;5089554;28;20044;-79
2020/12/02 15:21:24;;;;;;;0.20;0.10;;;;;;;38.61;16.77;98537.78;5090026;28;20081;-78
2020/12/02 15:23:51;;;;;;;0.30;0.20;;;;;;;38.64;16.84;98535.94;5090311;28;20040;-78
2020/12/02 15:26:17;;;;;;;0.20;0.20;;;;;;;38.66;16.72;98542.72;5091005;28;20032;-77
2020/12/02 15:28:43;;;;;;;0.22;0.10;;;;;;;38.72;16.28;98530.50;5095079;28;20040;-77
2020/12/02 15:31:14;;;;;;;0.30;0.10;;;;;;;38.70;16.00;98536.72;5092297;28;20040;-76
2020/12/02 15:33:41;;;;;;;0.32;0.20;;;;;;;38.72;16.45;98533.38;5092481;28;20040;-79
2020/12/02 15:36:16;;;;;;;0.30;0.28;;;;;;;38.72;16.00;98526.28;5095366;28;20032;-76
2020/12/02 15:39:03;;;;;;;0.32;0.25;;;;;;;38.69;16.45;98527.34;5096326;28;20036;-79
2020/12/02 15:41:52;;;;;;;0.10;0.10;;;;;;;38.78;16.44;98514.03;5096612;28;20104;-79
2020/12/02 15:44:26;;;;;;;0.32;0.20;;;;;;;38.82;15.92;98500.16;5090542;28;20028;-78
2020/12/02 15:46:58;;;;;;;0.40;0.13;;;;;;;38.82;16.69;98503.03;5096211;28;20032;-80
2020/12/02 15:49:52;;;;;;;0.20;0.20;;;;;;;38.77;15.58;98515.34;5096650;28;20127;-82
2020/12/02 15:52:28;;;;;;;0.03;0.03;;;;;;;38.82;15.65;98512.44;5100326;28;20032;-77
2020/12/02 15:55:41;;;;;;;0.20;0.20;;;;;;;38.84;15.35;98517.69;5097838;28;20055;-77
2020/12/02 15:58:29;;;;;;;0.10;0.10;;;;;;;38.84;15.82;98527.06;5095407;28;20111;-78
2020/12/02 16:00:58;;;;;;;0.20;0.20;;;;;;;38.85;16.04;98525.75;5111409;27;20395;-77
2020/12/02 16:03:29;;;;;;;0.30;0.20;;;;;;;38.83;15.71;98514.03;5097323;28;20070;-78
2020/12/02 16:05:56;;;;;;;0.10;0.10;;;;;;;38.85;16.61;98516.34;5096819;28;20116;-77
2020/12/02 16:08:37;;;;;;;0.25;0.25;;;;;;;38.84;15.47;98511.94;5102172;28;20403;-76
2020/12/02 16:11:16;;;;;;;0.35;0.20;;;;;;;38.86;15.68;98506.44;5092046;28;20429;-77
2020/12/02 16:13:42;;;;;;;0.20;0.10;;;;;;;38.82;16.37;98498.09;5092601;28;20028;-79
2020/12/02 16:16:08;;;;;;;0.57;0.22;;;;;;;38.77;16.14;98496.00;5097286;28;20032;-80
2020/12/02 16:18:37;;;;;;;0.20;0.20;;;;;;;38.81;16.60;98490.00;5096803;28;20059;-79
2020/12/02 16:21:18;;;;;;;0.32;0.20;;;;;;;38.81;15.98;98481.41;5088428;28;20115;-76
2020/12/02 16:23:47;;;;;;;0.30;0.30;;;;;;;38.78;16.34;98493.91;5093367;28;20092;-81
2020/12/02 16:26:15;;;;;;;0.20;0.20;;;;;;;38.77;16.24;98496.00;5099010;28;20032;-82
2020/12/02 16:28:43;;;;;;;0.40;0.20;;;;;;;38.77;16.32;98487.38;5096636;28;20047;-79
2020/12/02 16:31:15;;;;;;;0.20;0.20;;;;;;;38.78;16.22;98493.91;5096856;28;20059;-78
2020/12/02 16:33:48;;;;;;;0.35;0.20;;;;;;;38.85;16.67;98485.56;5090154;28;20035;-81
2020/12/02 16:36:24;;;;;;;0.20;0.20;;;;;;;38.85;15.87;98482.69;5096059;28;20121;-80
2020/12/02 16:39:05;;;;;;;0.30;0.20;;;;;;;38.88;16.16;98486.59;5094142;28;20024;-85
2020/12/02 16:42:29;;;;;;;0.20;0.20;;;;;;;38.87;15.04;98480.06;5086097;28;20044;-80
2020/12/02 16:45:00;;;;;;;0.68;0.20;;;;;;;38.91;16.11;98477.69;5049865;28;20033;-85
2020/12/02 16:47:36;;;;;;;0.10;0.10;;;;;;;38.93;15.66;98483.69;5053681;28;20032;-79
2020/12/02 16:50:02;;;;;;;0.17;0.10;;;;;;;38.94;16.36;98490.22;5045674;28;20488;-79
2020/12/02 16:53:07;;;;;;;0.63;0.10;;;;;;;38.93;15.26;98483.69;5054437;28;20056;-81
2020/12/02 16:55:34;;;;;;;0.20;0.20;;;;;;;38.93;16.48;98480.81;5052881;28;20025;-81
2020/12/02 16:58:21;;;;;;;0.20;0.20;;;;;;;38.90;15.56;98481.09;5048573;28;20029;-82
2020/12/02 17:00:50;;;;;;;0.75;0.30;;;;;;;38.93;16.57;98489.44;5055631;28;20033;-79
2020/12/02 17:03:26;;;;;;;0.20;0.10;;;;;;;38.94;15.66;98464.38;5053021;28;20453;-83
2020/12/02 17:05:54;;;;;;;0.20;0.20;;;;;;;38.93;16.46;98477.94;5048118;28;20139;-79
2020/12/02 17:08:22;;;;;;;0.10;0.10;;;;;;;38.87;16.25;98473.53;5048736;28;20075;-79
2020/12/02 17:10:55;;;;;;;0.00;0.00;;;;;;;38.85;16.66;98464.66;5049176;28;20033;-79
2020/12/02 17:13:46;;;;;;;0.10;0.10;;;;;;;38.87;16.28;98477.19;5048684;28;20035;-80
2020/12/02 17:16:42;;;;;;;0.10;0.10;;;;;;;38.88;15.99;98478.78;5048876;28;20128;-80
2020/12/02 17:19:35;;;;;;;0.20;0.20;;;;;;;38.84;15.46;98468.88;5050024;28;20029;-80
2020/12/02 17:22:41;;;;;;;0.10;0.10;;;;;;;38.81;15.10;98479.31;5049006;28;20051;-79
2020/12/02 17:25:16;;;;;;;0.10;0.10;;;;;;;38.82;16.02;98472.25;5048376;28;20041;-79
2020/12/02 17:28:03;;;;;;;0.10;0.10;;;;;;;38.78;16.22;98470.97;5049748;28;20051;-79
2020/12/02 17:31:08;;;;;;;0.10;0.10;;;;;;;38.77;15.54;98473.03;5051238;28;20386;-78
2020/12/02 17:34:05;;;;;;;0.05;0.05;;;;;;;38.75;15.53;98480.59;5051195;28;20024;-79
2020/12/02 17:36:55;;;;;;;0.10;0.10;;;;;;;38.73;15.26;98478.28;5049246;28;20029;-79
2020/12/02 17:39:39;;;;;;;0.30;0.30;;;;;;;38.73;15.81;98463.91;5051226;28;20036;-79
2020/12/02 17:42:08;;;;;;;0.20;0.15;;;;;;;38.70;16.27;98454.25;5053086;28;20033;-79
2020/12/02 17:45:01;;;;;;;0.10;0.05;;;;;;;38.69;15.91;98461.31;5049343;28;20043;-79
2020/12/02 17:47:58;;;;;;;0.17;0.15;;;;;;;38.66;15.84;98455.81;5049290;28;20045;-81
2020/12/02 17:50:34;;;;;;;0.10;0.10;;;;;;;38.62;16.20;98452.44;5089229;28;20407;-81
2020/12/02 17:53:06;;;;;;;0.10;0.00;;;;;;;38.61;16.45;98445.91;5092227;28;20421;-81
2020/12/02 17:55:50;;;;;;;0.15;0.15;;;;;;;38.51;15.28;98461.84;5083071;28;20502;-78
2020/12/02 17:58:17;;;;;;;0.10;0.10;;;;;;;38.56;16.43;98460.28;5086211;28;20032;-78
2020/12/02 18:00:58;;;;;;;0.13;0.13;;;;;;;38.56;16.11;98463.16;5091435;28;20114;-78
2020/12/02 18:03:42;;;;;;;0.10;0.10;;;;;;;38.57;16.22;98456.09;5089982;28;20028;-79
2020/12/02 18:06:18;;;;;;;0.10;0.10;;;;;;;38.61;16.09;98454.53;5091919;28;20043;-79
2020/12/02 18:08:53;;;;;;;0.10;0.10;;;;;;;38.59;16.36;98457.16;5088555;28;20036;-79
2020/12/02 18:11:28;;;;;;;0.15;0.10;;;;;;;38.60;15.82;98457.94;5092901;28;20103;-79
2020/12/02 18:13:59;;;;;;;0.10;0.10;;;;;;;38.58;16.04;98446.97;5092092;28;20114;-77
2020/12/02 18:16:30;;;;;;;0.10;0.10;;;;;;;38.58;16.33;98452.69;5085970;28;20511;-78
2020/12/02 18:19:13;;;;;;;0.10;0.10;;;;;;;38.58;16.13;98446.22;5089064;28;20042;-79
2020/12/02 18:22:17;;;;;;;0.10;0.10;;;;;;;38.58;15.90;98435.47;5090927;28;20090;-79
2020/12/02 18:25:14;;;;;;;0.22;0.20;;;;;;;38.50;15.44;98439.44;5090306;28;20084;-79
2020/12/02 18:27:46;;;;;;;0.10;0.10;;;;;;;38.55;16.78;98439.44;5091113;28;20364;-80
2020/12/02 18:30:21;;;;;;;0.20;0.10;;;;;;;38.55;16.04;98424.28;5091404;28;20032;-80
2020/12/02 18:33:18;;;;;;;0.10;0.10;;;;;;;38.52;15.49;98428.19;5091870;28;20475;-80
2020/12/02 18:36:17;;;;;;;0.20;0.20;;;;;;;38.55;15.37;98430.81;5087804;28;20379;-80
2020/12/02 18:39:07;;;;;;;0.05;0.05;;;;;;;38.63;16.38;98417.47;5085714;28;20044;-81
2020/12/02 18:42:08;;;;;;;0.10;0.10;;;;;;;38.58;16.17;98417.50;5090179;28;20039;-81
2020/12/02 18:44:35;;;;;;;0.10;0.10;;;;;;;38.60;16.90;98407.03;5033388;28;20557;-81
2020/12/02 18:47:08;;;;;;;0.25;0.20;;;;;;;38.59;15.80;98411.22;5091214;28;20088;-81
2020/12/02 18:49:41;;;;;;;0.10;0.10;;;;;;;38.61;16.55;98416.44;5085678;28;20392;-80
2020/12/02 18:52:20;;;;;;;0.20;0.20;;;;;;;38.57;16.54;98415.94;5091723;28;20092;-79
2020/12/02 18:54:46;;;;;;;0.20;0.20;;;;;;;38.53;16.25;98413.31;5091483;28;20066;-80
2020/12/02 18:57:32;;;;;;;0.17;0.13;;;;;;;38.58;16.01;98414.63;5089927;28;20031;-78
2020/12/02 18:59:59;;;;;;;0.10;0.10;;;;;;;38.56;16.56;98412.25;5086969;28;20028;-80
2020/12/02 19:02:30;;;;;;;0.20;0.10;;;;;;;38.58;16.15;98414.63;5086051;28;20079;-80
2020/12/02 19:05:08;;;;;;;0.15;0.10;;;;;;;38.57;16.29;98408.09;5090861;28;20039;-79
2020/12/02 19:07:39;;;;;;;0.10;0.10;;;;;;;38.58;16.45;98406.03;5087993;28;20501;-81
2020/12/02 19:10:08;;;;;;;0.10;0.10;;;;;;;38.57;16.70;98398.69;5089209;28;20379;-80
2020/12/02 19:12:41;;;;;;;0.00;0.00;;;;;;;38.59;16.50;98402.63;5092354;28;20040;-79
2020/12/02 19:15:25;;;;;;;0.13;0.10;;;;;;;38.60;17.02;98392.69;5088859;28;20024;-78
2020/12/02 19:18:42;;;;;;;0.15;0.10;;;;;;;38.65;15.62;98382.50;5094102;28;20491;-78
2020/12/02 19:21:28;;;;;;;0.10;0.10;;;;;;;38.62;16.12;98381.47;5050370;28;20040;-78
2020/12/02 19:24:36;;;;;;;0.10;0.10;;;;;;;38.61;15.86;98379.09;5095160;28;20101;-82
2020/12/02 19:27:14;;;;;;;0.10;0.10;;;;;;;38.62;16.49;98375.72;5092700;28;20030;-82
2020/12/02 19:30:04;;;;;;;0.10;0.10;;;;;;;38.60;16.23;98378.31;5093528;28;20040;-81
2020/12/02 19:32:49;;;;;;;0.30;0.10;;;;;;;38.61;16.41;98377.03;5087283;28;20036;-80
2020/12/02 19:35:32;;;;;;;0.10;0.10;;;;;;;38.62;16.24;98372.88;5091355;28;20036;-81
2020/12/02 19:38:09;;;;;;;0.00;0.00;;;;;;;38.65;16.55;98365.28;5093535;28;20039;-81
2020/12/02 19:41:04;;;;;;;0.08;0.08;;;;;;;38.65;16.15;98377.53;5093509;28;20043;-81
2020/12/02 19:43:59;;;;;;;0.45;0.10;;;;;;;38.65;16.10;98373.91;5093151;28;20051;-80
2020/12/02 19:46:48;;;;;;;0.43;0.10;;;;;;;38.67;16.14;98363.41;5095258;28;20027;-81
2020/12/02 19:49:20;;;;;;;0.17;0.17;;;;;;;38.64;16.34;98355.88;5086631;28;20060;-81
2020/12/02 19:51:52;;;;;;;0.10;0.10;;;;;;;38.65;16.66;98351.69;5093276;28;20082;-81
2020/12/02 19:54:41;;;;;;;0.10;0.10;;;;;;;38.63;16.45;98342.84;5093467;28;20056;-81
2020/12/02 19:57:37;;;;;;;0.08;0.00;;;;;;;38.61;15.60;98353.28;5092287;28;20150;-81
2020/12/02 20:00:10;;;;;;;0.08;0.00;;;;;;;38.64;16.63;98350.16;5090318;28;20044;-80
2020/12/02 20:02:51;;;;;;;0.05;0.00;;;;;;;38.63;16.49;98353.53;5095195;28;20514;-79
2020/12/02 20:05:41;;;;;;;0.10;0.05;;;;;;;38.70;16.34;98352.97;5094112;28;20039;-79
2020/12/02 20:08:20;;;;;;;;;;;;;;;38.80;14.31;98342.78;5093726;28;20064;-79
2020/12/02 20:11:14;;;;;;;0.10;0.10;;;;;;;38.78;15.85;98333.13;5086808;28;19916;-79
2020/12/02 20:14:10;;;;;;;0.00;0.00;;;;;;;38.71;15.69;98340.22;5093097;28;20032;-80
2020/12/02 20:16:48;;;;;;;0.10;0.10;;;;;;;38.67;16.63;98334.72;5095707;28;20031;-80
2020/12/02 20:19:48;;;;;;;0.15;0.10;;;;;;;38.64;15.91;98326.41;5088722;28;20032;-80
2020/12/02 20:22:54;;;;;;;0.10;0.00;;;;;;;38.60;15.39;98332.41;5089778;28;20093;-80
2020/12/02 20:25:48;;;;;;;0.10;0.10;;;;;;;38.63;15.71;98328.47;5093716;28;20036;-80
2020/12/02 20:28:34;;;;;;;0.10;0.10;;;;;;;38.62;15.32;98332.69;5090215;28;20031;-75
2020/12/02 20:31:16;;;;;;;0.10;0.10;;;;;;;38.68;16.28;98339.16;5091151;28;20104;-74
2020/12/02 20:33:52;;;;;;;0.22;0.10;;;;;;;38.72;15.63;98335.28;5092643;28;20555;-76
2020/12/02 20:36:19;;;;;;;0.20;0.10;;;;;;;38.69;16.44;98329.25;5095089;28;20028;-76
2020/12/02 20:39:06;;;;;;;0.20;0.10;;;;;;;38.72;15.45;98320.91;5094406;28;20028;-75
2020/12/02 20:41:32;;;;;;;0.13;0.10;;;;;;;38.79;16.31;98326.09;5094237;28;20032;-76
2020/12/02 20:43:58;;;;;;;0.10;0.10;;;;;;;38.77;16.06;98328.72;5092672;28;20032;-77
